| time (UTC) | temp C | wind direction | speed KPH | gust KPH | rain 1hr cm | rain 24hr cm | rain mn cm | humidity % | barometer mb |
| 20260508034511 | 18 | 150 | 29.0 | 41.8 | 0.00 | 0.00 | 0.00 | 58 | 1003.8 |
| 20260508033009 | 18 | 142 | 29.0 | 37.0 | 0.00 | 0.00 | 0.00 | 58 | 1003.6 |
| 20260508031514 | 19 | 142 | 27.4 | 33.8 | 0.00 | 0.00 | 0.00 | 56 | 1003.6 |
| 20260508030008 | 20 | 148 | 29.0 | 40.2 | 0.00 | 0.00 | 0.00 | 54 | 1003.5 |
| 20260508024521 | 20 | 149 | 27.4 | 35.4 | 0.00 | 0.00 | 0.00 | 53 | 1003.4 |
| 20260508023013 | 20 | 153 | 25.7 | 33.8 | 0.00 | 0.00 | 0.00 | 52 | 1003.3 |
| 20260508021512 | 20 | 140 | 24.1 | 30.6 | 0.00 | 0.00 | 0.00 | 51 | 1003.0 |
| 20260508020011 | 21 | 139 | 25.7 | 35.4 | 0.00 | 0.00 | 0.00 | 50 | 1002.8 |
| 20260508014603 | 21 | 142 | 22.5 | 35.4 | 0.00 | 0.00 | 0.00 | 49 | 1002.7 |
| 20260508013001 | 21 | 135 | 27.4 | 33.8 | 0.00 | 0.00 | 0.00 | 47 | 1002.6 |
| 20260508011600 | 21 | 131 | 24.1 | 32.2 | 0.00 | 0.00 | 0.00 | 46 | 1002.5 |
| 20260508011502 | 21 | 137 | 22.5 | 32.2 | 0.00 | 0.00 | 0.00 | 45 | 1002.5 |
| 20260508010059 | 22 | 139 | 27.4 | 35.4 | 0.00 | 0.00 | 0.00 | 45 | 1002.5 |
| 20260508004523 | 22 | 128 | 16.1 | 25.7 | 0.00 | 0.00 | 0.00 | 45 | 1002.4 |
| 20260508003018 | 22 | 150 | 20.9 | 30.6 | 0.00 | 0.00 | 0.00 | 44 | 1002.7 |
| 20260508001517 | 22 | 121 | 17.7 | 27.4 | 0.00 | 0.00 | 0.00 | 44 | 1002.6 |
| 20260508000017 | 22 | 137 | 12.9 | 24.1 | 0.00 | 0.00 | 0.00 | 44 | 1002.4 |
| 20260507234528 | 22 | 113 | 9.7 | 27.4 | 0.00 | 0.00 | 0.00 | 44 | 1002.5 |
| 20260507233018 | 22 | 134 | 19.3 | 30.6 | 0.00 | 0.00 | 0.00 | 44 | 1002.4 |
| 20260507231511 | 22 | 137 | 14.5 | 27.4 | 0.00 | 0.00 | 0.00 | 43 | 1002.6 |
| 20260507230015 | 22 | 142 | 19.3 | 29.0 | 0.00 | 0.00 | 0.00 | 44 | 1002.7 |
| 20260507224507 | 22 | 109 | 16.1 | 37.0 | 0.00 | 0.00 | 0.00 | 43 | 1003.0 |
| 20260507223007 | 22 | 119 | 14.5 | 24.1 | 0.00 | 0.00 | 0.00 | 42 | 1003.1 |
| 20260507221559 | 22 | 171 | 12.9 | 25.7 | 0.00 | 0.00 | 0.00 | 43 | 1003.3 |
| 20260507220057 | 21 | 134 | 17.7 | 27.4 | 0.00 | 0.00 | 0.00 | 45 | 1003.4 |
| 20260507214505 | 21 | 141 | 16.1 | 24.1 | 0.00 | 0.00 | 0.00 | 45 | 1003.6 |
| 20260507213002 | 21 | 144 | 8.0 | 29.0 | 0.00 | 0.00 | 0.00 | 45 | 1004.0 |
| 20260507211603 | 20 | 132 | 9.7 | 22.5 | 0.00 | 0.00 | 0.00 | 46 | 1004.5 |
| 20260507210113 | 20 | 101 | 6.4 | 12.9 | 0.00 | 0.00 | 0.00 | 48 | 1004.6 |
| 20260507204546 | 19 | 135 | 3.2 | 19.3 | 0.00 | 0.00 | 0.00 | 49 | 1004.8 |
| 20260507203040 | 19 | 161 | 4.8 | 19.3 | 0.00 | 0.00 | 0.00 | 49 | 1004.9 |
| 20260507201539 | 19 | 130 | 9.7 | 27.4 | 0.00 | 0.00 | 0.00 | 50 | 1005.1 |
| 20260507200046 | 18 | 87 | 17.7 | 27.4 | 0.00 | 0.00 | 0.00 | 52 | 1005.4 |
| 20260507194511 | 18 | 78 | 9.7 | 19.3 | 0.00 | 0.00 | 0.00 | 53 | 1005.8 |
| 20260507193002 | 17 | 108 | 14.5 | 20.9 | 0.00 | 0.00 | 0.00 | 54 | 1006.1 |
| 20260507191603 | 17 | 85 | 4.8 | 25.7 | 0.00 | 0.00 | 0.00 | 55 | 1006.3 |
| 20260507191501 | 17 | 296 | 8.0 | 25.7 | 0.00 | 0.00 | 0.00 | 54 | 1006.2 |
| 20260507190110 | 16 | 221 | 6.4 | 19.3 | 0.00 | 0.00 | 0.00 | 57 | 1006.6 |
| 20260507184553 | 16 | 30 | 3.2 | 24.1 | 0.00 | 0.00 | 0.00 | 58 | 1006.9 |
| 20260507183111 | 16 | 33 | 8.0 | 16.1 | 0.00 | 0.00 | 0.00 | 59 | 1007.1 |
| 20260507181556 | 16 | 104 | 4.8 | 12.9 | 0.00 | 0.00 | 0.00 | 60 | 1007.3 |
| 20260507180052 | 15 | 90 | 9.7 | 20.9 | 0.00 | 0.00 | 0.00 | 61 | 1007.6 |
| 20260507174536 | 15 | 107 | 6.4 | 17.7 | 0.00 | 0.00 | 0.00 | 61 | 1008.0 |
| 20260507173045 | 15 | 90 | 6.4 | 17.7 | 0.00 | 0.00 | 0.00 | 61 | 1008.1 |
| 20260507171533 | 14 | 63 | 9.7 | 17.7 | 0.00 | 0.00 | 0.00 | 63 | 1008.3 |
| 20260507170033 | 14 | 67 | 8.0 | 20.9 | 0.00 | 0.00 | 0.00 | 64 | 1008.4 |
| 20260507164544 | 13 | 51 | 16.1 | 25.7 | 0.00 | 0.00 | 0.00 | 64 | 1008.6 |
| 20260507163032 | 13 | 56 | 12.9 | 20.9 | 0.00 | 0.00 | 0.00 | 65 | 1008.8 |
| 20260507161542 | 13 | 82 | 14.5 | 22.5 | 0.00 | 0.00 | 0.00 | 65 | 1008.9 |
| 20260507160031 | 13 | 65 | 9.7 | 22.5 | 0.00 | 0.00 | 0.00 | 66 | 1008.9 |
| 20260507154528 | 13 | 80 | 11.3 | 19.3 | 0.00 | 0.00 | 0.00 | 66 | 1009.1 |
| 20260507153034 | 12 | 57 | 16.1 | 22.5 | 0.00 | 0.00 | 0.00 | 66 | 1009.0 |
| 20260507151526 | 12 | 79 | 17.7 | 24.1 | 0.00 | 0.00 | 0.00 | 66 | 1009.0 |
| 20260507150031 | 12 | 79 | 16.1 | 20.9 | 0.00 | 0.00 | 0.00 | 66 | 1009.0 |
| 20260507144530 | 12 | 67 | 17.7 | 27.4 | 0.00 | 0.00 | 0.00 | 66 | 1009.1 |
| 20260507143025 | 12 | 79 | 17.7 | 25.7 | 0.00 | 0.00 | 0.00 | 66 | 1009.1 |
| 20260507141521 | 12 | 87 | 17.7 | 24.1 | 0.00 | 0.00 | 0.00 | 66 | 1009.1 |
| 20260507140021 | 12 | 90 | 17.7 | 24.1 | 0.00 | 0.00 | 0.00 | 67 | 1009.1 |
| 20260507134513 | 12 | 76 | 20.9 | 27.4 | 0.00 | 0.00 | 0.00 | 67 | 1009.1 |
| 20260507133010 | 12 | 61 | 22.5 | 27.4 | 0.00 | 0.00 | 0.00 | 67 | 1008.9 |
| 20260507131517 | 12 | 42 | 20.9 | 27.4 | 0.00 | 0.00 | 0.00 | 67 | 1008.7 |
| 20260507130007 | 12 | 44 | 20.9 | 29.0 | 0.00 | 0.00 | 0.00 | 66 | 1008.5 |
| 20260507124513 | 12 | 31 | 22.5 | 27.4 | 0.00 | 0.00 | 0.00 | 65 | 1008.1 |
| 20260507123006 | 12 | 36 | 19.3 | 25.7 | 0.00 | 0.00 | 0.00 | 64 | 1008.0 |
| 20260507121510 | 12 | 22 | 19.3 | 25.7 | 0.00 | 0.00 | 0.00 | 63 | 1007.8 |
| 20260507120006 | 11 | 347 | 19.3 | 27.4 | 0.00 | 0.00 | 0.00 | 62 | 1007.5 |
| 20260507114609 | 11 | 13 | 17.7 | 24.1 | 0.00 | 0.00 | 0.00 | 62 | 1007.2 |
| 20260507113125 | 11 | 13 | 17.7 | 25.7 | 0.00 | 0.00 | 0.00 | 62 | 1007.0 |
| 20260507111557 | 11 | 11 | 22.5 | 33.8 | 0.00 | 0.00 | 0.00 | 60 | 1006.9 |
| 20260507110051 | 11 | 346 | 24.1 | 33.8 | 0.00 | 0.00 | 0.00 | 60 | 1006.6 |
| 20260507104545 | 11 | 11 | 30.6 | 38.6 | 0.00 | 0.00 | 0.00 | 59 | 1006.5 |
| 20260507103049 | 11 | 351 | 27.4 | 38.6 | 0.00 | 0.00 | 0.00 | 58 | 1006.4 |
| 20260507101542 | 11 | 13 | 27.4 | 35.4 | 0.00 | 0.00 | 0.00 | 58 | 1006.2 |
| 20260507100038 | 12 | 15 | 27.4 | 35.4 | 0.00 | 0.00 | 0.00 | 57 | 1006.0 |
| 20260507094549 | 12 | 20 | 30.6 | 38.6 | 0.00 | 0.00 | 0.00 | 57 | 1006.0 |
| 20260507093049 | 12 | 30 | 30.6 | 43.5 | 0.00 | 0.00 | 0.00 | 56 | 1005.7 |
| 20260507091547 | 12 | 23 | 32.2 | 43.5 | 0.00 | 0.00 | 0.00 | 56 | 1005.4 |
| 20260507090042 | 12 | 348 | 33.8 | 46.7 | 0.00 | 0.00 | 0.00 | 56 | 1005.0 |
| 20260507084544 | 12 | 351 | 38.6 | 49.9 | 0.00 | 0.00 | 0.00 | 55 | 1004.7 |
| 20260507083036 | 13 | 11 | 41.8 | 57.9 | 0.00 | 0.00 | 0.00 | 54 | 1005.0 |
| 20260507081539 | 13 | 344 | 32.2 | 37.0 | 0.00 | 0.00 | 0.00 | 53 | 1005.1 |
| 20260507080030 | 13 | 348 | 33.8 | 46.7 | 0.00 | 0.00 | 0.00 | 52 | 1004.8 |
| 20260507074531 | 14 | 24 | 32.2 | 41.8 | 0.00 | 0.00 | 0.00 | 50 | 1004.9 |
| 20260507073025 | 16 | 344 | 38.6 | 49.9 | 0.00 | 0.00 | 0.00 | 43 | 1004.7 |
| 20260507071519 | 20 | 36 | 9.7 | 14.5 | 0.00 | 0.00 | 0.00 | 26 | 1003.6 |
| 20260507070017 | 20 | 191 | 3.2 | 11.3 | 0.00 | 0.00 | 0.00 | 28 | 1003.4 |
| 20260507064514 | 21 | 294 | 8.0 | 9.7 | 0.00 | 0.00 | 0.00 | 23 | 1003.3 |
| 20260507063016 | 21 | 303 | 4.8 | 11.3 | 0.00 | 0.00 | 0.00 | 23 | 1003.2 |
| 20260507061513 | 21 | 291 | 6.4 | 11.3 | 0.00 | 0.00 | 0.00 | 25 | 1002.9 |
| 20260507060011 | 21 | 298 | 6.4 | 12.9 | 0.00 | 0.00 | 0.00 | 23 | 1002.8 |
| 20260507054510 | 22 | 257 | 11.3 | 14.5 | 0.00 | 0.00 | 0.00 | 23 | 1002.7 |
| 20260507053010 | 22 | 273 | 12.9 | 17.7 | 0.00 | 0.00 | 0.00 | 21 | 1002.7 |
| 20260507051510 | 22 | 255 | 8.0 | 11.3 | 0.00 | 0.00 | 0.00 | 21 | 1002.7 |
| 20260507050014 | 23 | 298 | 11.3 | 12.9 | 0.00 | 0.00 | 0.00 | 21 | 1002.7 |
| 20260507044512 | 23 | 310 | 9.7 | 12.9 | 0.00 | 0.00 | 0.00 | 21 | 1002.5 |
| 20260507043019 | 23 | 310 | 8.0 | 11.3 | 0.00 | 0.00 | 0.00 | 20 | 1002.3 |
| 20260507041510 | 23 | 323 | 9.7 | 14.5 | 0.00 | 0.00 | 0.00 | 19 | 1002.1 |
| 20260507040008 | 22 | 9 | 4.8 | 9.7 | 0.00 | 0.00 | 0.00 | 21 | 1002.1 |